Terminal Aerodrome Forecast
Issued by NWS

Home | Current Version | Previous Version | Text Only | Print | Product List | Glossary On
Versions: 1 2 3 4 5 6 7 8 9 10 11 12 13
000
FTUS46 KSGX 060520
TAFPSP
TAF
KPSP 060520Z 0606/0706 32012G22KT P6SM BKN100
     FM061000 VRB06KT P6SM BKN080
     FM061800 34012G20KT P6SM VCSH BKN070
     FM070400 33010KT P6SM VCSH BKN100=

USA.gov is the U.S. government's official web portal to all federal, state and local government web resources and services.